Time;durP1;ratioP1;P1;durP2;ratioP2;P2;SDS_P1;SDS_P2;PMS_P1;PMS_P2;Temp;Humidity;BMP_temperature;BMP_pressure;BME280_temperature;BME280_humidity;BME280_pressure;Samples;Min_cycle;Max_cycle;Signal;HPM_P1;HPM_P2
2023/12/03 00:01:56;;;;;;;;;70.00;56.50;;;;;;;;4922292;28;45288;-80
2023/12/03 00:04:22;;;;;;;;;58.50;48.75;;;;;;;;4904840;28;46547;-80
2023/12/03 00:06:47;;;;;;;;;66.00;54.00;;;;;;;;4905005;28;47134;-80
2023/12/03 00:09:12;;;;;;;;;54.25;46.50;;;;;;;;4922116;28;45278;-80
2023/12/03 00:11:37;;;;;;;;;52.75;44.75;;;;;;;;4904901;28;45328;-79
2023/12/03 00:14:03;;;;;;;;;52.50;44.25;;;;;;;;4921189;28;45446;-79
2023/12/03 00:16:28;;;;;;;;;54.25;43.25;;;;;;;;4921733;28;45549;-80
2023/12/03 00:18:53;;;;;;;;;51.00;41.75;;;;;;;;4922104;28;45450;-80
2023/12/03 00:21:18;;;;;;;;;45.75;42.00;;;;;;;;4905008;28;45601;-79
2023/12/03 00:23:43;;;;;;;;;50.75;41.75;;;;;;;;4922032;28;45422;-80
2023/12/03 00:26:09;;;;;;;;;50.75;44.50;;;;;;;;4904867;28;47114;-79
2023/12/03 00:28:34;;;;;;;;;39.25;39.25;;;;;;;;4921928;28;45363;-80
2023/12/03 00:30:59;;;;;;;;;54.25;44.50;;;;;;;;4904714;28;45332;-80
2023/12/03 00:33:24;;;;;;;;;48.75;42.75;;;;;;;;4921687;28;45370;-80
2023/12/03 00:35:49;;;;;;;;;55.50;47.25;;;;;;;;4921846;28;46407;-79
2023/12/03 00:38:15;;;;;;;;;48.25;40.75;;;;;;;;4904518;28;45393;-80
2023/12/03 00:40:40;;;;;;;;;51.75;41.50;;;;;;;;4922018;28;45438;-79
2023/12/03 00:43:05;;;;;;;;;38.00;36.50;;;;;;;;4921903;28;45385;-80
2023/12/03 00:45:30;;;;;;;;;50.00;44.25;;;;;;;;4904393;28;47279;-79
2023/12/03 00:47:56;;;;;;;;;51.25;45.00;;;;;;;;4922066;28;45371;-80
2023/12/03 00:50:21;;;;;;;;;51.50;46.25;;;;;;;;4905363;28;45324;-79
2023/12/03 00:52:46;;;;;;;;;48.50;43.50;;;;;;;;4922162;28;45296;-80
2023/12/03 00:55:11;;;;;;;;;52.25;46.50;;;;;;;;4922097;28;46459;-80
2023/12/03 00:57:36;;;;;;;;;54.50;44.50;;;;;;;;4895099;29;45891;-80
2023/12/03 01:00:02;;;;;;;;;43.00;41.25;;;;;;;;4885946;29;45543;-80
2023/12/03 01:02:27;;;;;;;;;50.50;45.00;;;;;;;;4902827;29;45268;-81
2023/12/03 01:04:52;;;;;;;;;48.75;44.00;;;;;;;;4885418;29;47109;-79
2023/12/03 01:07:17;;;;;;;;;48.75;40.50;;;;;;;;4885314;29;45296;-79
2023/12/03 01:09:42;;;;;;;;;46.50;42.50;;;;;;;;4885867;29;45360;-79
2023/12/03 01:12:08;;;;;;;;;46.25;42.75;;;;;;;;4885451;29;47322;-79
2023/12/03 01:14:33;;;;;;;;;50.75;43.25;;;;;;;;4885331;29;47206;-79
2023/12/03 01:16:58;;;;;;;;;47.50;42.50;;;;;;;;4885144;29;45337;-79
2023/12/03 01:19:23;;;;;;;;;47.25;43.00;;;;;;;;4902535;29;45310;-80
2023/12/03 01:21:48;;;;;;;;;45.25;42.50;;;;;;;;4885051;29;45877;-79
2023/12/03 01:24:14;;;;;;;;;49.50;43.25;;;;;;;;4902119;29;46284;-79
2023/12/03 01:26:39;;;;;;;;;47.75;43.75;;;;;;;;4904424;29;45219;-79
2023/12/03 01:29:05;;;;;;;;;41.50;37.75;;;;;;;;4889150;29;45234;-79
2023/12/03 01:31:30;;;;;;;;;46.25;42.25;;;;;;;;4905411;29;45301;-80
2023/12/03 01:33:56;;;;;;;;;51.00;46.50;;;;;;;;4905471;29;45190;-79
2023/12/03 01:36:21;;;;;;;;;48.50;42.00;;;;;;;;4905319;29;45317;-79
2023/12/03 01:38:46;;;;;;;;;50.50;42.00;;;;;;;;4905616;29;45213;-79
2023/12/03 01:41:11;;;;;;;;;42.50;40.00;;;;;;;;4888077;29;46099;-79
2023/12/03 01:43:46;;;;;;;;;41.75;38.00;;;;;;;;4905311;29;45336;-79
2023/12/03 01:46:11;;;;;;;;;44.50;39.25;;;;;;;;4888167;29;45274;-78
2023/12/03 01:48:36;;;;;;;;;48.00;43.25;;;;;;;;4888172;29;45234;-79
2023/12/03 01:51:01;;;;;;;;;41.25;37.75;;;;;;;;4888072;29;47305;-80
2023/12/03 01:53:26;;;;;;;;;38.50;35.00;;;;;;;;4888107;29;47450;-80
2023/12/03 01:55:52;;;;;;;;;41.75;37.75;;;;;;;;4888396;29;45716;-79
2023/12/03 01:58:18;;;;;;;;;37.75;34.50;;;;;;;;4919765;28;45243;-80
2023/12/03 02:00:43;;;;;;;;;38.00;33.50;;;;;;;;4924089;28;45550;-80
2023/12/03 02:03:08;;;;;;;;;40.25;33.00;;;;;;;;4906616;28;47180;-79
2023/12/03 02:05:33;;;;;;;;;37.25;35.00;;;;;;;;4906917;28;45217;-80
2023/12/03 02:07:59;;;;;;;;;34.25;32.50;;;;;;;;4924723;28;45342;-79
2023/12/03 02:10:25;;;;;;;;;41.25;36.50;;;;;;;;4924119;28;45386;-80
2023/12/03 02:12:50;;;;;;;;;43.00;39.00;;;;;;;;4906609;28;47989;-79
2023/12/03 02:15:15;;;;;;;;;34.75;31.25;;;;;;;;4924137;28;45409;-79
2023/12/03 02:17:40;;;;;;;;;35.75;32.75;;;;;;;;4925042;28;45313;-80
2023/12/03 02:20:05;;;;;;;;;32.25;29.50;;;;;;;;4908002;28;46773;-80
2023/12/03 02:22:31;;;;;;;;;37.00;34.00;;;;;;;;4907571;28;48221;-80
2023/12/03 02:24:56;;;;;;;;;33.25;30.00;;;;;;;;4924122;28;45450;-80
2023/12/03 02:27:21;;;;;;;;;40.00;35.75;;;;;;;;4906958;28;45255;-79
2023/12/03 02:29:47;;;;;;;;;36.00;34.50;;;;;;;;4923825;28;45616;-80
2023/12/03 02:32:12;;;;;;;;;42.75;36.25;;;;;;;;4906179;28;47850;-80
2023/12/03 02:34:38;;;;;;;;;36.00;33.75;;;;;;;;4906126;28;45332;-79
2023/12/03 02:37:03;;;;;;;;;37.00;30.25;;;;;;;;4905654;28;45658;-80
2023/12/03 02:39:28;;;;;;;;;39.25;37.00;;;;;;;;4905963;28;46312;-79
2023/12/03 02:41:53;;;;;;;;;42.75;37.25;;;;;;;;4905875;28;47063;-80
2023/12/03 02:44:18;;;;;;;;;34.50;33.25;;;;;;;;4906373;28;45236;-79
2023/12/03 02:46:44;;;;;;;;;40.25;37.25;;;;;;;;4906274;28;45359;-80
2023/12/03 02:49:09;;;;;;;;;48.25;40.00;;;;;;;;4923137;28;45348;-79
2023/12/03 02:51:35;;;;;;;;;41.75;34.75;;;;;;;;4906252;28;47390;-80
2023/12/03 02:54:00;;;;;;;;;36.25;34.75;;;;;;;;4923286;28;45470;-80
2023/12/03 02:56:25;;;;;;;;;39.50;36.75;;;;;;;;4906023;28;45263;-79
2023/12/03 02:58:50;;;;;;;;;37.25;35.25;;;;;;;;4904311;29;45312;-80
2023/12/03 03:01:16;;;;;;;;;41.25;33.75;;;;;;;;4886698;29;47193;-80
2023/12/03 03:03:41;;;;;;;;;31.50;30.75;;;;;;;;4904347;29;45268;-80
2023/12/03 03:06:06;;;;;;;;;39.75;33.00;;;;;;;;4904665;29;45589;-80
2023/12/03 03:08:31;;;;;;;;;38.50;34.50;;;;;;;;4886649;29;47120;-80
2023/12/03 03:10:56;;;;;;;;;33.75;33.25;;;;;;;;4903888;29;45292;-79
2023/12/03 03:13:22;;;;;;;;;37.75;34.75;;;;;;;;4903733;29;45279;-79
2023/12/03 03:15:47;;;;;;;;;41.75;34.50;;;;;;;;4904111;29;45183;-79
2023/12/03 03:18:12;;;;;;;;;39.75;33.25;;;;;;;;4903801;29;45225;-79
2023/12/03 03:20:37;;;;;;;;;44.00;39.50;;;;;;;;4886562;29;47491;-79
2023/12/03 03:23:02;;;;;;;;;15.75;13.50;;;;;;;;4886811;29;45679;-80
2023/12/03 03:25:27;;;;;;;;;37.25;32.75;;;;;;;;4903732;29;45198;-79
2023/12/03 03:27:53;;;;;;;;;44.75;38.25;;;;;;;;4903476;29;45329;-80
2023/12/03 03:30:18;;;;;;;;;34.00;29.75;;;;;;;;4903616;29;46464;-79
2023/12/03 03:32:43;;;;;;;;;41.75;35.75;;;;;;;;4886475;29;45826;-80
2023/12/03 03:35:08;;;;;;;;;30.25;30.25;;;;;;;;4903780;29;45228;-79
2023/12/03 03:37:34;;;;;;;;;41.50;35.75;;;;;;;;4903305;29;46371;-80
2023/12/03 03:39:59;;;;;;;;;40.25;32.00;;;;;;;;4903563;29;45427;-80
2023/12/03 03:42:24;;;;;;;;;41.75;33.25;;;;;;;;4886483;29;45666;-80
2023/12/03 03:44:49;;;;;;;;;43.50;36.75;;;;;;;;4903468;29;45130;-79
2023/12/03 03:47:14;;;;;;;;;41.50;39.75;;;;;;;;4903633;29;45466;-79
2023/12/03 03:49:40;;;;;;;;;47.25;37.75;;;;;;;;4903238;29;46739;-80
2023/12/03 03:52:05;;;;;;;;;42.00;37.00;;;;;;;;4903414;29;45293;-79
2023/12/03 03:54:30;;;;;;;;;39.75;39.25;;;;;;;;4886196;29;45297;-79
2023/12/03 03:56:56;;;;;;;;;44.75;40.00;;;;;;;;4890184;28;46829;-80
2023/12/03 03:59:21;;;;;;;;;39.25;36.25;;;;;;;;4905021;28;47099;-80
2023/12/03 04:01:46;;;;;;;;;37.75;34.25;;;;;;;;4922123;28;45360;-80
2023/12/03 04:04:11;;;;;;;;;41.00;32.50;;;;;;;;4922165;28;45275;-80
2023/12/03 04:06:40;;;;;;;;;38.25;37.25;;;;;;;;4922193;28;45569;-80
2023/12/03 04:09:06;;;;;;;;;36.00;35.50;;;;;;;;4904733;28;47255;-79
2023/12/03 04:11:32;;;;;;;;;42.25;40.75;;;;;;;;4904880;28;45736;-80
2023/12/03 04:13:57;;;;;;;;;36.75;34.50;;;;;;;;4905201;28;45289;-80
2023/12/03 04:16:22;;;;;;;;;45.25;40.25;;;;;;;;4904916;28;46108;-80
2023/12/03 04:18:47;;;;;;;;;43.50;40.75;;;;;;;;4904943;28;48045;-80
2023/12/03 04:21:13;;;;;;;;;36.50;34.50;;;;;;;;4921943;28;45410;-80
2023/12/03 04:23:38;;;;;;;;;32.25;28.50;;;;;;;;4904873;28;45364;-79
2023/12/03 04:26:07;;;;;;;;;35.80;33.60;;;;;;;;4904993;28;45898;-80
2023/12/03 04:28:32;;;;;;;;;37.75;35.75;;;;;;;;4921984;28;45322;-79
2023/12/03 04:30:57;;;;;;;;;37.25;35.00;;;;;;;;4921432;28;45306;-80
2023/12/03 04:33:22;;;;;;;;;40.25;37.25;;;;;;;;4904772;28;45378;-80
2023/12/03 04:35:47;;;;;;;;;41.25;39.50;;;;;;;;4904736;28;46946;-80
2023/12/03 04:38:12;;;;;;;;;39.25;38.00;;;;;;;;4921878;28;46567;-79
2023/12/03 04:40:37;;;;;;;;;42.00;38.00;;;;;;;;4904695;28;45343;-80
2023/12/03 04:43:03;;;;;;;;;36.00;34.25;;;;;;;;4904734;28;45342;-79
2023/12/03 04:45:28;;;;;;;;;39.75;29.50;;;;;;;;4921574;28;45504;-80
2023/12/03 04:47:53;;;;;;;;;36.25;30.75;;;;;;;;4904457;28;47560;-79
2023/12/03 04:50:18;;;;;;;;;42.50;40.00;;;;;;;;4904423;28;45309;-80
2023/12/03 04:52:43;;;;;;;;;36.00;31.50;;;;;;;;4904474;28;45467;-79
2023/12/03 04:55:09;;;;;;;;;29.25;29.25;;;;;;;;4921604;28;45569;-79
2023/12/03 04:57:34;;;;;;;;;41.00;36.75;;;;;;;;4912126;28;46659;-79
2023/12/03 04:59:59;;;;;;;;;28.75;27.50;;;;;;;;4885371;29;45253;-79
2023/12/03 05:02:24;;;;;;;;;35.00;32.00;;;;;;;;4888744;29;45351;-80
2023/12/03 05:04:49;;;;;;;;;35.25;33.25;;;;;;;;4888618;29;46972;-80
2023/12/03 05:07:15;;;;;;;;;37.75;32.25;;;;;;;;4888611;29;48332;-80
2023/12/03 05:09:40;;;;;;;;;32.00;30.00;;;;;;;;4888668;29;45882;-80
2023/12/03 05:12:05;;;;;;;;;24.25;24.25;;;;;;;;4905801;29;45367;-79
2023/12/03 05:14:32;;;;;;;;;37.50;33.00;;;;;;;;4905493;29;45199;-79
2023/12/03 05:16:57;;;;;;;;;36.00;31.00;;;;;;;;4905341;29;45485;-80
2023/12/03 05:19:22;;;;;;;;;34.75;31.25;;;;;;;;4888141;29;45211;-80
2023/12/03 05:21:48;;;;;;;;;29.25;28.00;;;;;;;;4905863;29;45543;-80
2023/12/03 05:24:13;;;;;;;;;36.25;27.50;;;;;;;;4888392;29;47239;-81
2023/12/03 05:26:38;;;;;;;;;32.00;29.00;;;;;;;;4905501;29;45356;-80
2023/12/03 05:29:03;;;;;;;;;34.00;30.00;;;;;;;;4905694;29;45328;-79
2023/12/03 05:31:29;;;;;;;;;32.50;30.25;;;;;;;;4888384;29;45542;-79
2023/12/03 05:33:54;;;;;;;;;35.00;30.50;;;;;;;;4888100;29;46806;-79
2023/12/03 05:36:23;;;;;;;;;30.00;26.25;;;;;;;;4888215;29;48175;-80
2023/12/03 05:38:48;;;;;;;;;40.50;36.00;;;;;;;;4905152;29;45318;-79
2023/12/03 05:41:14;;;;;;;;;36.75;34.50;;;;;;;;4905181;29;45340;-80
2023/12/03 05:43:39;;;;;;;;;36.50;36.50;;;;;;;;4905250;29;45574;-80
2023/12/03 05:46:04;;;;;;;;;35.00;33.25;;;;;;;;4887359;29;48195;-80
2023/12/03 05:48:30;;;;;;;;;36.75;32.50;;;;;;;;4888062;29;45368;-79
2023/12/03 05:50:56;;;;;;;;;28.60;25.40;;;;;;;;4901918;29;45188;-79
2023/12/03 05:53:21;;;;;;;;;36.25;34.75;;;;;;;;4878236;29;46053;-80
2023/12/03 05:55:46;;;;;;;;;33.75;30.25;;;;;;;;4869176;29;48214;-80
2023/12/03 05:58:11;;;;;;;;;40.25;34.75;;;;;;;;4896631;28;45343;-79
2023/12/03 06:00:36;;;;;;;;;39.75;34.50;;;;;;;;4888955;29;45329;-79
2023/12/03 06:03:02;;;;;;;;;37.00;32.75;;;;;;;;4904233;29;45481;-80
2023/12/03 06:05:27;;;;;;;;;39.00;35.25;;;;;;;;4903267;29;46116;-80
2023/12/03 06:07:52;;;;;;;;;26.25;26.25;;;;;;;;4904268;29;45266;-80
2023/12/03 06:10:18;;;;;;;;;45.75;38.75;;;;;;;;4905049;29;45253;-79
2023/12/03 06:12:43;;;;;;;;;36.00;31.00;;;;;;;;4886557;29;45793;-80
2023/12/03 06:15:09;;;;;;;;;33.75;30.50;;;;;;;;4887347;29;47994;-79
2023/12/03 06:17:34;;;;;;;;;37.75;34.50;;;;;;;;4887713;29;45603;-80
2023/12/03 06:19:59;;;;;;;;;25.25;24.00;;;;;;;;4904599;29;45376;-80
2023/12/03 06:22:24;;;;;;;;;38.00;34.75;;;;;;;;4887706;29;45865;-79
2023/12/03 06:24:50;;;;;;;;;37.25;30.50;;;;;;;;4887434;29;48196;-79
2023/12/03 06:27:15;;;;;;;;;33.75;32.75;;;;;;;;4904524;29;45365;-80
2023/12/03 06:29:40;;;;;;;;;33.75;31.75;;;;;;;;4887331;29;45353;-79
2023/12/03 06:32:05;;;;;;;;;34.25;31.25;;;;;;;;4904491;29;45395;-80
2023/12/03 06:34:30;;;;;;;;;29.00;27.50;;;;;;;;4904273;29;45423;-79
2023/12/03 06:36:56;;;;;;;;;30.00;28.00;;;;;;;;4887519;29;45329;-79
2023/12/03 06:39:21;;;;;;;;;38.75;35.50;;;;;;;;4904823;29;45345;-79
2023/12/03 06:41:46;;;;;;;;;33.00;28.25;;;;;;;;4904498;29;45305;-78
2023/12/03 06:44:11;;;;;;;;;35.00;27.50;;;;;;;;4904447;29;45322;-78
2023/12/03 06:46:40;;;;;;;;;38.25;36.25;;;;;;;;4904149;29;45335;-80
2023/12/03 06:49:05;;;;;;;;;49.00;40.75;;;;;;;;4903886;29;46423;-80
2023/12/03 06:51:30;;;;;;;;;41.75;32.75;;;;;;;;4877785;29;45535;-78
2023/12/03 06:53:56;;;;;;;;;32.25;29.75;;;;;;;;4886116;29;45398;-79
2023/12/03 06:56:21;;;;;;;;;40.75;33.75;;;;;;;;4885365;29;45266;-79
2023/12/03 06:58:47;;;;;;;;;42.25;33.75;;;;;;;;4922515;28;45303;-78
2023/12/03 07:01:12;;;;;;;;;28.75;26.25;;;;;;;;4905911;28;46900;-80
2023/12/03 07:03:37;;;;;;;;;34.75;33.25;;;;;;;;4905645;28;48350;-79
2023/12/03 07:06:02;;;;;;;;;36.75;32.00;;;;;;;;4905912;28;45264;-80
2023/12/03 07:08:28;;;;;;;;;37.00;33.50;;;;;;;;4923312;28;45137;-80
2023/12/03 07:10:53;;;;;;;;;36.50;32.50;;;;;;;;4906148;28;46253;-80
2023/12/03 07:13:18;;;;;;;;;37.50;35.25;;;;;;;;4905425;28;47256;-79
2023/12/03 07:15:43;;;;;;;;;38.25;33.50;;;;;;;;4905649;28;45872;-77
2023/12/03 07:18:08;;;;;;;;;37.75;37.00;;;;;;;;4899644;28;45136;-77
2023/12/03 07:20:33;;;;;;;;;48.50;38.25;;;;;;;;4899171;29;47230;-79
2023/12/03 07:22:59;;;;;;;;;39.60;34.20;;;;;;;;4902064;29;48129;-78
2023/12/03 07:25:24;;;;;;;;;34.00;31.00;;;;;;;;4896397;29;46429;-80
2023/12/03 07:27:49;;;;;;;;;34.50;30.75;;;;;;;;4894450;29;45844;-77
2023/12/03 07:30:14;;;;;;;;;36.00;29.50;;;;;;;;4903322;29;45504;-78
2023/12/03 07:32:39;;;;;;;;;34.25;28.00;;;;;;;;4903519;29;45310;-79
2023/12/03 07:35:05;;;;;;;;;38.50;30.00;;;;;;;;4903507;29;45339;-77
2023/12/03 07:37:30;;;;;;;;;37.25;31.75;;;;;;;;4903326;29;45227;-78
2023/12/03 07:39:55;;;;;;;;;36.75;33.75;;;;;;;;4886455;29;46308;-78
2023/12/03 07:42:21;;;;;;;;;44.50;38.25;;;;;;;;4903105;29;46719;-80
2023/12/03 07:44:47;;;;;;;;;39.75;35.50;;;;;;;;4903725;29;45300;-76
2023/12/03 07:47:12;;;;;;;;;40.50;35.50;;;;;;;;4886535;29;45256;-77
2023/12/03 07:49:37;;;;;;;;;43.25;37.50;;;;;;;;4885471;29;45928;-76
2023/12/03 07:52:02;;;;;;;;;40.50;34.50;;;;;;;;4895334;29;45353;-77
2023/12/03 07:54:27;;;;;;;;;42.00;38.50;;;;;;;;4884579;29;45338;-76
2023/12/03 07:56:52;;;;;;;;;18.25;13.25;;;;;;;;4892063;28;45324;-76
2023/12/03 07:59:18;;;;;;;;;43.75;36.00;;;;;;;;4922637;28;45568;-77
2023/12/03 08:01:43;;;;;;;;;36.75;32.50;;;;;;;;4904748;28;47348;-76
2023/12/03 08:04:08;;;;;;;;;40.25;33.50;;;;;;;;4905091;28;45245;-76
2023/12/03 08:06:33;;;;;;;;;36.75;34.25;;;;;;;;4904978;28;45333;-76
2023/12/03 08:08:59;;;;;;;;;37.25;35.00;;;;;;;;4922155;28;45297;-76
2023/12/03 08:11:24;;;;;;;;;39.25;38.00;;;;;;;;4922194;28;45367;-76
2023/12/03 08:13:50;;;;;;;;;37.00;33.25;;;;;;;;4921757;28;45409;-77
2023/12/03 08:16:15;;;;;;;;;31.75;28.00;;;;;;;;4922087;28;45284;-80
2023/12/03 08:18:41;;;;;;;;;33.50;27.25;;;;;;;;4921842;28;45343;-78
2023/12/03 08:21:06;;;;;;;;;38.50;29.75;;;;;;;;4921874;28;45279;-76
2023/12/03 08:23:32;;;;;;;;;33.75;31.50;;;;;;;;4890454;29;45650;-78
2023/12/03 08:25:57;;;;;;;;;31.00;29.25;;;;;;;;4896807;29;45483;-76
2023/12/03 08:28:23;;;;;;;;;28.75;27.50;;;;;;;;4890870;29;45563;-77
2023/12/03 08:30:48;;;;;;;;;33.25;31.25;;;;;;;;4865707;29;47283;-76
2023/12/03 08:33:14;;;;;;;;;29.00;24.50;;;;;;;;4886710;28;45639;-78
2023/12/03 08:35:39;;;;;;;;;31.75;27.00;;;;;;;;4882860;29;45934;-80
2023/12/03 08:38:04;;;;;;;;;26.25;23.25;;;;;;;;4883933;29;45926;-76
2023/12/03 08:40:29;;;;;;;;;26.00;23.75;;;;;;;;4887860;29;47112;-79
2023/12/03 08:42:54;;;;;;;;;30.00;28.75;;;;;;;;4905743;29;45503;-77
2023/12/03 08:45:20;;;;;;;;;37.75;31.25;;;;;;;;4905686;29;45356;-77
2023/12/03 08:47:45;;;;;;;;;31.00;28.75;;;;;;;;4888573;29;46446;-78
2023/12/03 08:50:10;;;;;;;;;28.00;26.25;;;;;;;;4905444;29;46207;-78
2023/12/03 08:52:35;;;;;;;;;34.50;28.75;;;;;;;;4904320;29;45482;-78
2023/12/03 08:55:02;;;;;;;;;23.25;22.75;;;;;;;;4888429;29;45327;-78
2023/12/03 08:57:27;;;;;;;;;36.00;31.75;;;;;;;;4913667;28;45373;-79
2023/12/03 08:59:53;;;;;;;;;25.00;22.50;;;;;;;;4907222;28;48489;-77
2023/12/03 09:02:19;;;;;;;;;26.25;23.75;;;;;;;;4924927;28;45332;-77
2023/12/03 09:04:44;;;;;;;;;30.75;28.25;;;;;;;;4924908;28;45240;-79
2023/12/03 09:07:09;;;;;;;;;32.75;26.50;;;;;;;;4907720;28;46214;-78
2023/12/03 09:09:34;;;;;;;;;28.00;24.25;;;;;;;;4924716;28;46080;-77
2023/12/03 09:11:59;;;;;;;;;29.75;27.00;;;;;;;;4907469;28;45170;-79
2023/12/03 09:14:28;;;;;;;;;24.50;22.00;;;;;;;;4924674;28;45682;-78
2023/12/03 09:16:53;;;;;;;;;25.75;24.75;;;;;;;;4907366;28;46358;-79
2023/12/03 09:19:18;;;;;;;;;25.00;21.50;;;;;;;;4907177;28;46938;-79
2023/12/03 09:21:43;;;;;;;;;27.25;25.50;;;;;;;;4925284;28;45254;-77
2023/12/03 09:24:09;;;;;;;;;27.25;25.50;;;;;;;;4933176;28;45335;-78
2023/12/03 09:26:34;;;;;;;;;27.25;26.75;;;;;;;;4909022;28;46904;-79
2023/12/03 09:29:00;;;;;;;;;27.25;23.75;;;;;;;;4910176;28;47018;-78
2023/12/03 09:31:25;;;;;;;;;30.75;22.50;;;;;;;;4926161;28;45392;-79
2023/12/03 09:33:50;;;;;;;;;28.25;26.00;;;;;;;;4926893;28;45276;-79
2023/12/03 09:36:15;;;;;;;;;33.25;29.75;;;;;;;;4926693;28;45313;-78
2023/12/03 09:38:40;;;;;;;;;25.00;22.50;;;;;;;;4924760;28;46198;-76
2023/12/03 09:41:08;;;;;;;;;29.75;22.75;;;;;;;;4924427;28;45367;-77
2023/12/03 09:43:35;;;;;;;;;27.50;24.25;;;;;;;;4924672;28;45336;-77
2023/12/03 09:46:01;;;;;;;;;33.00;28.50;;;;;;;;4923907;28;45465;-76
2023/12/03 09:48:29;;;;;;;;;36.50;30.25;;;;;;;;4923935;28;45237;-77
2023/12/03 09:50:54;;;;;;;;;28.75;27.00;;;;;;;;4924104;28;45356;-76
2023/12/03 09:53:20;;;;;;;;;33.00;28.50;;;;;;;;4919028;28;45442;-77
2023/12/03 09:55:46;;;;;;;;;31.75;30.25;;;;;;;;4904996;29;45273;-78
2023/12/03 09:58:14;;;;;;;;;28.50;25.25;;;;;;;;4919612;28;45611;-77
2023/12/03 10:00:39;;;;;;;;;37.25;29.00;;;;;;;;4923004;28;45263;-77
2023/12/03 10:03:05;;;;;;;;;22.25;19.25;;;;;;;;4907216;28;45409;-78
2023/12/03 10:05:30;;;;;;;;;29.50;25.25;;;;;;;;4924209;28;45197;-77
2023/12/03 10:07:57;;;;;;;;;28.50;26.00;;;;;;;;4907723;28;47491;-77
2023/12/03 10:10:24;;;;;;;;;22.50;22.50;;;;;;;;4908806;28;45230;-76
2023/12/03 10:12:52;;;;;;;;;29.50;26.50;;;;;;;;4925066;28;45352;-77
2023/12/03 10:15:17;;;;;;;;;47.25;41.25;;;;;;;;4923425;28;45474;-77
2023/12/03 10:17:43;;;;;;;;;28.75;28.75;;;;;;;;4923676;28;46228;-77
2023/12/03 10:20:27;;;;;;;;;31.75;30.00;;;;;;;;4923682;28;45345;-77
2023/12/03 10:22:54;;;;;;;;;33.50;25.75;;;;;;;;4906525;28;45361;-77
2023/12/03 10:25:30;;;;;;;;;28.25;25.75;;;;;;;;4906285;28;47066;-77
2023/12/03 10:27:56;;;;;;;;;43.25;38.00;;;;;;;;4923615;28;45308;-77
2023/12/03 10:30:22;;;;;;;;;22.25;20.50;;;;;;;;4923260;28;45328;-77
2023/12/03 10:32:47;;;;;;;;;24.33;22.67;;;;;;;;4923747;28;45325;-77
2023/12/03 10:35:12;;;;;;;;;27.25;25.25;;;;;;;;4923450;28;45290;-77
2023/12/03 10:37:38;;;;;;;;;27.00;22.25;;;;;;;;4923376;28;46001;-77
2023/12/03 10:40:03;;;;;;;;;26.33;22.67;;;;;;;;4923558;28;45243;-77
2023/12/03 10:42:29;;;;;;;;;29.00;27.25;;;;;;;;4906274;28;45854;-77
2023/12/03 10:44:54;;;;;;;;;37.50;33.50;;;;;;;;4923246;28;45353;-77
2023/12/03 10:47:20;;;;;;;;;39.50;33.50;;;;;;;;4923281;28;45396;-77
2023/12/03 10:49:46;;;;;;;;;25.67;23.33;;;;;;;;4923212;28;45496;-77
2023/12/03 10:52:11;;;;;;;;;29.75;28.25;;;;;;;;4923352;28;45836;-77
2023/12/03 10:54:37;;;;;;;;;31.75;26.75;;;;;;;;4923088;28;45522;-77
2023/12/03 10:57:02;;;;;;;;;28.25;23.75;;;;;;;;4921124;28;45388;-77
2023/12/03 10:59:28;;;;;;;;;32.00;27.00;;;;;;;;4922298;28;45316;-78
2023/12/03 11:01:54;;;;;;;;;37.00;27.25;;;;;;;;4922910;28;45407;-79
2023/12/03 11:04:39;;;;;;;;;22.33;22.00;;;;;;;;4905797;28;46084;-77
2023/12/03 11:07:05;;;;;;;;;27.33;21.33;;;;;;;;4905023;28;48173;-77
2023/12/03 11:09:31;;;;;;;;;26.67;22.00;;;;;;;;4904984;28;45447;-79
2023/12/03 11:11:57;;;;;;;;;28.33;27.00;;;;;;;;4898078;29;45675;-77
2023/12/03 11:14:22;;;;;;;;;25.33;21.00;;;;;;;;4886036;29;46242;-78
2023/12/03 11:16:48;;;;;;;;;20.25;19.75;;;;;;;;4893726;29;45436;-76
2023/12/03 11:19:16;;;;;;;;;29.50;25.50;;;;;;;;4868316;29;45170;-78
2023/12/03 11:21:51;;;;;;;;;27.25;24.75;;;;;;;;4872144;29;45374;-79
2023/12/03 11:24:47;;;;;;;;;26.67;22.33;;;;;;;;4873632;29;47459;-78
2023/12/03 11:27:12;;;;;;;;;25.50;23.00;;;;;;;;4851196;29;45367;-78
2023/12/03 11:29:50;;;;;;;;;18.75;16.75;;;;;;;;4886753;29;45393;-78
2023/12/03 11:32:16;;;;;;;;;20.67;20.00;;;;;;;;4888055;29;45236;-78
2023/12/03 11:34:41;;;;;;;;;27.33;23.00;;;;;;;;4903781;29;45301;-76
2023/12/03 11:37:11;;;;;;;;;29.33;26.67;;;;;;;;4888245;29;47553;-76
2023/12/03 11:39:42;;;;;;;;;25.00;22.67;;;;;;;;4904429;29;45432;-78
2023/12/03 11:42:08;;;;;;;;;21.67;19.33;;;;;;;;4903819;29;45230;-76
2023/12/03 11:44:33;;;;;;;;;31.00;26.25;;;;;;;;4889392;29;46157;-77
2023/12/03 11:47:03;;;;;;;;;29.00;25.33;;;;;;;;4896103;29;46026;-78
2023/12/03 11:49:28;;;;;;;;;33.67;31.00;;;;;;;;4903605;29;45404;-78
2023/12/03 11:51:53;;;;;;;;;29.00;26.00;;;;;;;;4896986;29;45330;-76
2023/12/03 11:54:24;;;;;;;;;20.33;19.00;;;;;;;;4884796;29;45333;-78
2023/12/03 11:56:49;;;;;;;;;22.33;22.00;;;;;;;;4884831;29;45288;-77
2023/12/03 11:59:14;;;;;;;;;36.33;31.67;;;;;;;;4884259;29;45456;-76
2023/12/03 12:01:39;;;;;;;;;29.67;24.67;;;;;;;;4884150;29;45463;-77
2023/12/03 12:04:04;;;;;;;;;26.67;22.00;;;;;;;;4884171;29;45471;-77
2023/12/03 12:06:31;;;;;;;;;34.00;30.33;;;;;;;;4884145;29;45377;-78
2023/12/03 12:08:58;;;;;;;;;30.67;28.67;;;;;;;;4867252;29;45342;-77
2023/12/03 12:11:23;;;;;;;;;31.00;28.67;;;;;;;;4883067;29;45290;-79
2023/12/03 12:13:49;;;;;;;;;21.67;20.33;;;;;;;;4893852;29;45330;-78
2023/12/03 12:16:14;;;;;;;;;27.00;25.00;;;;;;;;4892977;29;45592;-78
2023/12/03 12:18:40;;;;;;;;;27.33;23.00;;;;;;;;4883336;29;45303;-78
2023/12/03 12:21:11;;;;;;;;;23.00;21.00;;;;;;;;4901667;29;45396;-77
2023/12/03 12:23:36;;;;;;;;;44.00;37.50;;;;;;;;4885038;29;45904;-78
2023/12/03 12:26:02;;;;;;;;;42.50;34.00;;;;;;;;4901535;29;46124;-79
2023/12/03 12:28:27;;;;;;;;;21.50;20.50;;;;;;;;4901477;29;45470;-79
2023/12/03 12:30:54;;;;;;;;;35.00;30.67;;;;;;;;4884422;29;45189;-78
2023/12/03 12:33:19;;;;;;;;;23.00;22.00;;;;;;;;4883874;29;47508;-79
2023/12/03 12:35:48;;;;;;;;;21.67;21.67;;;;;;;;4901740;29;45858;-80
2023/12/03 12:38:13;;;;;;;;;17.00;14.33;;;;;;;;4885026;29;45417;-80
2023/12/03 12:40:50;;;;;;;;;31.00;25.67;;;;;;;;4901435;29;45549;-80
2023/12/03 12:43:17;;;;;;;;;22.33;20.67;;;;;;;;4883684;29;45323;-79
2023/12/03 12:45:42;;;;;;;;;41.50;37.75;;;;;;;;4882907;29;45381;-79
2023/12/03 12:48:27;;;;;;;;;31.00;25.00;;;;;;;;4884079;29;45249;-77
2023/12/03 12:50:52;;;;;;;;;22.00;21.67;;;;;;;;4883911;29;45259;-77
2023/12/03 12:53:18;;;;;;;;;29.67;24.00;;;;;;;;4872185;29;46501;-77
2023/12/03 12:55:44;;;;;;;;;25.33;22.33;;;;;;;;4897549;29;46175;-76
2023/12/03 12:58:10;;;;;;;;;34.00;32.75;;;;;;;;4901277;28;45360;-77
2023/12/03 13:00:35;;;;;;;;;38.50;35.75;;;;;;;;4900979;29;45335;-77
2023/12/03 13:03:01;;;;;;;;;27.67;26.33;;;;;;;;4901852;29;45732;-78
2023/12/03 13:05:26;;;;;;;;;11.75;10.25;;;;;;;;4904856;29;46217;-77
2023/12/03 13:07:52;;;;;;;;;29.33;27.00;;;;;;;;4905510;29;45201;-75
2023/12/03 13:10:17;;;;;;;;;20.00;18.67;;;;;;;;4895166;29;45436;-77
2023/12/03 13:12:43;;;;;;;;;36.33;30.67;;;;;;;;4898727;29;45261;-78
2023/12/03 13:15:11;;;;;;;;;21.33;21.00;;;;;;;;4880777;29;47283;-77
2023/12/03 13:17:46;;;;;;;;;20.33;20.33;;;;;;;;4876821;29;46503;-76
2023/12/03 13:20:11;;;;;;;;;25.33;23.33;;;;;;;;4894383;29;45258;-76
2023/12/03 13:22:37;;;;;;;;;30.33;26.33;;;;;;;;4882443;29;46012;-77
2023/12/03 13:25:02;;;;;;;;;43.00;38.25;;;;;;;;4896913;29;46539;-77
2023/12/03 13:27:27;;;;;;;;;39.75;35.50;;;;;;;;4903041;29;45304;-77
2023/12/03 13:29:54;;;;;;;;;26.33;23.67;;;;;;;;4898763;29;45355;-76
2023/12/03 13:32:19;;;;;;;;;28.00;24.00;;;;;;;;4895641;29;45364;-76
2023/12/03 13:34:44;;;;;;;;;40.00;35.00;;;;;;;;4895693;29;46180;-77
2023/12/03 13:37:09;;;;;;;;;29.00;27.33;;;;;;;;4895477;29;45416;-77
2023/12/03 13:39:34;;;;;;;;;30.33;28.00;;;;;;;;4895500;29;45246;-78
2023/12/03 13:42:00;;;;;;;;;26.00;21.33;;;;;;;;4879297;29;46993;-79
2023/12/03 13:44:25;;;;;;;;;41.60;38.60;;;;;;;;4896505;29;46033;-77
2023/12/03 13:47:00;;;;;;;;;23.67;23.67;;;;;;;;4887226;29;45837;-77
2023/12/03 13:49:25;;;;;;;;;131.00;122.75;;;;;;;;4889199;29;45335;-79
2023/12/03 13:51:50;;;;;;;;;48.00;40.50;;;;;;;;4905863;29;45238;-77
2023/12/03 13:54:15;;;;;;;;;39.00;32.33;;;;;;;;4908318;29;45317;-77
2023/12/03 13:56:40;;;;;;;;;79.50;62.00;;;;;;;;4906487;28;45304;-79
2023/12/03 13:59:06;;;;;;;;;27.00;21.00;;;;;;;;4924104;28;45584;-80
2023/12/03 14:01:31;;;;;;;;;25.67;20.67;;;;;;;;4923531;28;45410;-79
2023/12/03 14:03:56;;;;;;;;;27.00;26.00;;;;;;;;4915294;28;45340;-78
2023/12/03 14:06:22;;;;;;;;;22.00;18.33;;;;;;;;4894020;29;45277;-78
2023/12/03 14:08:47;;;;;;;;;41.75;36.50;;;;;;;;4894775;29;45125;-80